createdAt,value
2022-10-14T00:03:26.260Z,13.1
2022-10-14T00:09:19.677Z,13.1
2022-10-14T00:15:14.585Z,13.2
2022-10-14T00:21:29.965Z,13.2
2022-10-14T00:27:29.779Z,13.2
2022-10-14T00:33:24.607Z,13.2
2022-10-14T00:39:19.602Z,13.2
2022-10-14T00:45:12.843Z,13.2
2022-10-14T00:51:17.777Z,13.2
2022-10-14T00:57:19.178Z,13.3
2022-10-14T01:03:17.453Z,13.2
2022-10-14T01:15:36.521Z,13.3
2022-10-14T01:21:57.244Z,13.3
2022-10-14T01:27:54.440Z,13.3
2022-10-14T01:34:15.628Z,13.3
2022-10-14T01:40:24.949Z,13.3
2022-10-14T01:46:24.780Z,13.3
2022-10-14T01:52:19.039Z,13.3
2022-10-14T01:58:20.167Z,13.2
2022-10-14T02:04:12.911Z,13.3
2022-10-14T02:16:26.677Z,13.2
2022-10-14T02:22:38.323Z,13.1
2022-10-14T02:28:36.726Z,13.2
2022-10-14T02:34:29.368Z,13.2
2022-10-14T02:40:29.689Z,13.2
2022-10-14T02:52:43.111Z,13.2
2022-10-14T02:58:47.168Z,13.2
2022-10-14T03:04:52.090Z,13.2
2022-10-14T03:17:09.214Z,13.2
2022-10-14T03:23:01.840Z,13.2
2022-10-14T03:28:54.373Z,13.2
2022-10-14T03:34:49.319Z,13.2
2022-10-14T03:40:41.352Z,13.2
2022-10-14T03:46:33.535Z,13.2
2022-10-14T03:52:29.131Z,13.2
2022-10-14T03:58:23.440Z,13.2
2022-10-14T04:04:17.091Z,13.2
2022-10-14T04:10:11.877Z,13.2
2022-10-14T04:16:12.223Z,13.2
2022-10-14T04:22:13.700Z,13.2
2022-10-14T04:28:10.337Z,13.2
2022-10-14T04:34:16.409Z,13.2
2022-10-14T04:46:21.261Z,13.2
2022-10-14T04:52:30.577Z,13.3
2022-10-14T04:58:27.898Z,13.2
2022-10-14T05:04:38.757Z,13.2
2022-10-14T05:10:34.232Z,13.3
2022-10-14T05:16:38.458Z,13.3
2022-10-14T05:22:29.684Z,13.2
2022-10-14T05:28:32.530Z,13.2
2022-10-14T05:34:33.377Z,13.2
2022-10-14T05:40:32.900Z,13.2
2022-10-14T05:46:51.660Z,13.2
2022-10-14T05:52:47.180Z,13.2
2022-10-14T05:58:46.999Z,13.2
2022-10-14T06:24:05.751Z,13.3
2022-10-14T07:57:24.331Z,13.9
2022-10-14T08:03:16.340Z,14
2022-10-14T08:09:12.682Z,14
2022-10-14T08:15:07.401Z,14.1
2022-10-14T08:21:02.223Z,14.1
2022-10-14T08:56:41.282Z,14.6
2022-10-14T09:02:35.251Z,14.7
2022-10-14T09:08:28.045Z,14.8
2022-10-14T09:14:20.420Z,14.8
2022-10-14T09:20:18.014Z,14.9
2022-10-14T09:26:26.583Z,14.9
2022-10-14T09:32:29.628Z,14.9
2022-10-14T15:53:35.037Z,15.7
2022-10-14T15:59:28.380Z,15.6
2022-10-14T16:05:20.506Z,15.6
2022-10-14T16:11:17.280Z,15.6
2022-10-14T16:17:10.125Z,15.5
2022-10-14T16:23:03.744Z,15.5
2022-10-14T16:29:05.384Z,15.5
2022-10-14T16:35:05.224Z,15.5
2022-10-14T16:41:00.534Z,15.5
2022-10-14T16:46:51.771Z,15.4
2022-10-14T16:52:42.846Z,15.4
2022-10-14T16:58:36.651Z,15.4
2022-10-14T17:04:28.608Z,15.4
2022-10-14T17:10:22.483Z,15.4
2022-10-14T17:16:14.857Z,15.4
2022-10-14T17:22:06.133Z,15.4
2022-10-14T17:27:57.142Z,15.4
2022-10-14T17:33:49.640Z,15.4
2022-10-14T17:39:44.830Z,15.4
2022-10-14T17:45:36.016Z,15.4
2022-10-14T17:51:42.975Z,15.4
2022-10-14T17:57:34.798Z,15.4
2022-10-14T18:03:24.515Z,15.4
2022-10-14T18:09:17.173Z,15.3
2022-10-14T18:15:06.174Z,15.3
2022-10-14T18:20:58.639Z,15.3
2022-10-14T18:26:50.979Z,15.3
2022-10-14T18:32:47.104Z,15.3
2022-10-14T18:38:37.833Z,15.4
2022-10-14T18:44:29.930Z,15.3
2022-10-14T18:50:22.213Z,15.4
2022-10-14T18:56:14.086Z,15.3
2022-10-14T19:02:05.476Z,15.3
2022-10-14T19:07:59.039Z,15.3
2022-10-14T19:13:49.910Z,15.3
2022-10-14T19:19:43.523Z,15.3
2022-10-14T19:25:33.846Z,15.2
2022-10-14T19:31:24.761Z,15.3
2022-10-14T19:37:15.630Z,15.2
2022-10-14T19:43:06.796Z,15.2
2022-10-14T19:48:57.386Z,15.2
2022-10-14T19:54:50.675Z,15.1
2022-10-14T20:00:41.922Z,15.1
2022-10-14T20:06:32.724Z,15.2
2022-10-14T20:12:25.229Z,15.2
2022-10-14T20:18:21.778Z,15.2
2022-10-14T20:24:21.424Z,15.2
2022-10-14T20:30:26.437Z,15.2
2022-10-14T20:36:19.267Z,15.1
2022-10-14T20:42:11.752Z,15.1
2022-10-14T20:48:04.662Z,15.1
2022-10-14T20:53:58.445Z,15.1
2022-10-14T20:59:58.754Z,15.1
2022-10-14T21:05:49.355Z,15
2022-10-14T21:11:40.960Z,15
2022-10-14T21:17:33.216Z,14.9
2022-10-14T21:23:24.155Z,14.8
2022-10-14T21:29:19.208Z,15
2022-10-14T21:35:13.193Z,14.9
2022-10-14T21:41:06.432Z,15
2022-10-14T21:46:59.947Z,14.9
2022-10-14T21:52:53.734Z,15
2022-10-14T21:58:44.753Z,14.8
2022-10-14T22:04:38.497Z,14.8
2022-10-14T22:10:33.958Z,14.9
2022-10-14T22:16:29.962Z,14.8
